Rzhev, Russia
Current Conditions -  °F | °C
As of 10:00 PM on Thursday 18 Dec 2014 (Local Time) from UUBW Reporting Station
Overcast Overcast  
Wind Chill: 27°   Ceiling: 1400
Heat Index: 34°   Visibility: 6mi
Dew Point: 30°   Wind: 9mph
Humidity: 87%   Direction: 210°SSW
Pressure: 29.83"   Gusts: NA
Location:  56.26°N, 34.33°E
Report Text: UUBW 181900Z 21004MPS 9999 OVC014 01/M01 Q1010 NOSIG RMKSC0.40
Loading
Personal Weather Stations






























Interactive Weather Map New forecast layout! Learn more

10-Day Weather Forecast

Advertisements
Track Severe Weather on mobile